sensor_id;sensor_type;location;lat;lon;timestamp;P1;durP1;ratioP1;P2;durP2;ratioP2
18748;SDS011;9503;53.560;10.246;2023-03-14T00:00:04;6.70;;;3.00;;
18748;SDS011;9503;53.560;10.246;2023-03-14T00:02:33;4.10;;;2.67;;
18748;SDS011;9503;53.560;10.246;2023-03-14T00:05:00;5.13;;;2.80;;
18748;SDS011;9503;53.560;10.246;2023-03-14T00:07:28;7.07;;;3.10;;
18748;SDS011;9503;53.560;10.246;2023-03-14T00:09:58;6.00;;;2.90;;
18748;SDS011;9503;53.560;10.246;2023-03-14T00:12:25;4.83;;;2.70;;
18748;SDS011;9503;53.560;10.246;2023-03-14T00:14:52;7.07;;;2.80;;
18748;SDS011;9503;53.560;10.246;2023-03-14T00:17:18;6.73;;;2.83;;
18748;SDS011;9503;53.560;10.246;2023-03-14T00:19:45;4.50;;;2.60;;
18748;SDS011;9503;53.560;10.246;2023-03-14T00:22:11;8.80;;;2.90;;
18748;SDS011;9503;53.560;10.246;2023-03-14T00:24:39;10.40;;;3.47;;
18748;SDS011;9503;53.560;10.246;2023-03-14T00:27:06;10.50;;;2.87;;
18748;SDS011;9503;53.560;10.246;2023-03-14T00:29:33;8.23;;;2.77;;
18748;SDS011;9503;53.560;10.246;2023-03-14T00:31:59;6.47;;;3.07;;
18748;SDS011;9503;53.560;10.246;2023-03-14T00:34:28;10.90;;;2.83;;
18748;SDS011;9503;53.560;10.246;2023-03-14T00:36:54;5.97;;;2.70;;
18748;SDS011;9503;53.560;10.246;2023-03-14T00:39:21;5.73;;;3.00;;
18748;SDS011;9503;53.560;10.246;2023-03-14T00:41:49;8.20;;;3.30;;
18748;SDS011;9503;53.560;10.246;2023-03-14T00:44:16;7.50;;;3.03;;
18748;SDS011;9503;53.560;10.246;2023-03-14T00:46:42;9.13;;;3.10;;
18748;SDS011;9503;53.560;10.246;2023-03-14T00:49:09;6.10;;;2.80;;
18748;SDS011;9503;53.560;10.246;2023-03-14T00:51:36;8.40;;;2.90;;
18748;SDS011;9503;53.560;10.246;2023-03-14T00:54:02;4.50;;;2.70;;
18748;SDS011;9503;53.560;10.246;2023-03-14T00:56:30;6.33;;;3.10;;
18748;SDS011;9503;53.560;10.246;2023-03-14T00:58:58;4.57;;;3.23;;
18748;SDS011;9503;53.560;10.246;2023-03-14T01:01:25;5.60;;;2.50;;
18748;SDS011;9503;53.560;10.246;2023-03-14T01:03:52;5.77;;;2.60;;
18748;SDS011;9503;53.560;10.246;2023-03-14T01:06:20;7.87;;;3.20;;
18748;SDS011;9503;53.560;10.246;2023-03-14T01:08:49;4.40;;;3.07;;
18748;SDS011;9503;53.560;10.246;2023-03-14T01:11:16;6.63;;;3.23;;
18748;SDS011;9503;53.560;10.246;2023-03-14T01:13:44;9.27;;;3.17;;
18748;SDS011;9503;53.560;10.246;2023-03-14T01:16:16;5.10;;;3.00;;
18748;SDS011;9503;53.560;10.246;2023-03-14T01:18:44;3.83;;;2.77;;
18748;SDS011;9503;53.560;10.246;2023-03-14T01:21:13;7.57;;;3.03;;
18748;SDS011;9503;53.560;10.246;2023-03-14T01:23:41;12.67;;;3.63;;
18748;SDS011;9503;53.560;10.246;2023-03-14T01:26:09;6.10;;;2.50;;
18748;SDS011;9503;53.560;10.246;2023-03-14T01:28:36;6.67;;;2.90;;
18748;SDS011;9503;53.560;10.246;2023-03-14T01:31:03;5.00;;;3.20;;
18748;SDS011;9503;53.560;10.246;2023-03-14T01:33:31;8.40;;;3.00;;
18748;SDS011;9503;53.560;10.246;2023-03-14T01:35:59;6.67;;;3.23;;
18748;SDS011;9503;53.560;10.246;2023-03-14T01:38:27;8.00;;;3.20;;
18748;SDS011;9503;53.560;10.246;2023-03-14T01:40:53;8.63;;;2.90;;
18748;SDS011;9503;53.560;10.246;2023-03-14T01:43:20;5.33;;;3.00;;
18748;SDS011;9503;53.560;10.246;2023-03-14T01:46:01;5.27;;;2.73;;
18748;SDS011;9503;53.560;10.246;2023-03-14T01:48:46;7.10;;;3.23;;
18748;SDS011;9503;53.560;10.246;2023-03-14T01:51:19;6.27;;;2.93;;
18748;SDS011;9503;53.560;10.246;2023-03-14T01:53:50;7.73;;;2.77;;
18748;SDS011;9503;53.560;10.246;2023-03-14T01:56:19;7.67;;;3.27;;
18748;SDS011;9503;53.560;10.246;2023-03-14T01:58:47;5.63;;;3.10;;
18748;SDS011;9503;53.560;10.246;2023-03-14T02:01:18;6.83;;;3.00;;
18748;SDS011;9503;53.560;10.246;2023-03-14T02:03:49;9.87;;;3.97;;
18748;SDS011;9503;53.560;10.246;2023-03-14T02:06:20;7.07;;;3.10;;
18748;SDS011;9503;53.560;10.246;2023-03-14T02:08:49;9.57;;;3.50;;
18748;SDS011;9503;53.560;10.246;2023-03-14T02:11:17;8.53;;;3.00;;
18748;SDS011;9503;53.560;10.246;2023-03-14T02:13:44;6.90;;;2.93;;
18748;SDS011;9503;53.560;10.246;2023-03-14T02:16:12;5.23;;;3.27;;
18748;SDS011;9503;53.560;10.246;2023-03-14T02:18:38;5.70;;;2.70;;
18748;SDS011;9503;53.560;10.246;2023-03-14T02:21:11;8.87;;;3.10;;
18748;SDS011;9503;53.560;10.246;2023-03-14T02:23:45;11.70;;;3.27;;
18748;SDS011;9503;53.560;10.246;2023-03-14T02:26:20;10.53;;;3.97;;
18748;SDS011;9503;53.560;10.246;2023-03-14T02:28:51;14.60;;;4.17;;
18748;SDS011;9503;53.560;10.246;2023-03-14T02:31:19;10.43;;;2.90;;
18748;SDS011;9503;53.560;10.246;2023-03-14T02:33:47;11.20;;;3.40;;
18748;SDS011;9503;53.560;10.246;2023-03-14T02:36:14;9.40;;;3.30;;
18748;SDS011;9503;53.560;10.246;2023-03-14T02:38:43;10.00;;;3.13;;
18748;SDS011;9503;53.560;10.246;2023-03-14T02:41:13;10.43;;;3.30;;
18748;SDS011;9503;53.560;10.246;2023-03-14T02:43:40;9.27;;;2.80;;
18748;SDS011;9503;53.560;10.246;2023-03-14T02:46:08;8.23;;;3.50;;
18748;SDS011;9503;53.560;10.246;2023-03-14T02:48:38;8.23;;;3.63;;
18748;SDS011;9503;53.560;10.246;2023-03-14T02:51:09;10.33;;;3.60;;
18748;SDS011;9503;53.560;10.246;2023-03-14T02:53:36;10.97;;;3.67;;
18748;SDS011;9503;53.560;10.246;2023-03-14T02:56:05;7.87;;;3.20;;
18748;SDS011;9503;53.560;10.246;2023-03-14T02:58:32;8.10;;;3.30;;
18748;SDS011;9503;53.560;10.246;2023-03-14T03:00:59;10.40;;;3.50;;
18748;SDS011;9503;53.560;10.246;2023-03-14T03:03:27;9.30;;;3.50;;
18748;SDS011;9503;53.560;10.246;2023-03-14T03:05:54;9.10;;;3.50;;
18748;SDS011;9503;53.560;10.246;2023-03-14T03:08:22;12.50;;;4.20;;
18748;SDS011;9503;53.560;10.246;2023-03-14T03:10:52;10.60;;;3.57;;
18748;SDS011;9503;53.560;10.246;2023-03-14T03:13:19;6.20;;;3.17;;
18748;SDS011;9503;53.560;10.246;2023-03-14T03:15:45;9.37;;;3.50;;
18748;SDS011;9503;53.560;10.246;2023-03-14T03:18:12;10.73;;;3.33;;
18748;SDS011;9503;53.560;10.246;2023-03-14T03:20:40;6.80;;;3.20;;
18748;SDS011;9503;53.560;10.246;2023-03-14T03:23:07;13.70;;;3.67;;
18748;SDS011;9503;53.560;10.246;2023-03-14T03:25:33;5.73;;;3.03;;
18748;SDS011;9503;53.560;10.246;2023-03-14T03:28:00;6.90;;;3.37;;
18748;SDS011;9503;53.560;10.246;2023-03-14T03:30:32;5.60;;;2.90;;
18748;SDS011;9503;53.560;10.246;2023-03-14T03:32:59;7.03;;;3.00;;
18748;SDS011;9503;53.560;10.246;2023-03-14T03:35:26;6.93;;;2.90;;
18748;SDS011;9503;53.560;10.246;2023-03-14T03:37:54;9.47;;;3.73;;
18748;SDS011;9503;53.560;10.246;2023-03-14T03:40:20;8.40;;;2.93;;
18748;SDS011;9503;53.560;10.246;2023-03-14T03:42:47;6.33;;;2.73;;
18748;SDS011;9503;53.560;10.246;2023-03-14T03:45:14;8.93;;;3.00;;
18748;SDS011;9503;53.560;10.246;2023-03-14T03:47:40;8.53;;;3.00;;
18748;SDS011;9503;53.560;10.246;2023-03-14T03:50:07;8.60;;;3.13;;
18748;SDS011;9503;53.560;10.246;2023-03-14T03:52:34;10.00;;;3.10;;
18748;SDS011;9503;53.560;10.246;2023-03-14T03:55:03;10.07;;;2.77;;
18748;SDS011;9503;53.560;10.246;2023-03-14T03:57:30;6.80;;;2.97;;
18748;SDS011;9503;53.560;10.246;2023-03-14T03:59:56;6.10;;;2.87;;
18748;SDS011;9503;53.560;10.246;2023-03-14T04:02:23;8.33;;;3.50;;
18748;SDS011;9503;53.560;10.246;2023-03-14T04:04:50;4.37;;;3.00;;
18748;SDS011;9503;53.560;10.246;2023-03-14T04:07:16;8.20;;;3.23;;
18748;SDS011;9503;53.560;10.246;2023-03-14T04:09:43;9.23;;;3.00;;
18748;SDS011;9503;53.560;10.246;2023-03-14T04:12:11;9.33;;;3.20;;
18748;SDS011;9503;53.560;10.246;2023-03-14T04:14:38;6.90;;;3.10;;
18748;SDS011;9503;53.560;10.246;2023-03-14T04:17:06;5.57;;;3.07;;
18748;SDS011;9503;53.560;10.246;2023-03-14T04:19:33;5.37;;;3.20;;
18748;SDS011;9503;53.560;10.246;2023-03-14T04:21:59;6.00;;;3.07;;
18748;SDS011;9503;53.560;10.246;2023-03-14T04:24:26;7.00;;;3.20;;
18748;SDS011;9503;53.560;10.246;2023-03-14T04:26:52;4.70;;;3.03;;
18748;SDS011;9503;53.560;10.246;2023-03-14T04:29:20;11.93;;;4.10;;
18748;SDS011;9503;53.560;10.246;2023-03-14T04:31:47;11.60;;;4.27;;
18748;SDS011;9503;53.560;10.246;2023-03-14T04:34:14;8.87;;;3.67;;
18748;SDS011;9503;53.560;10.246;2023-03-14T04:36:40;9.93;;;3.17;;
18748;SDS011;9503;53.560;10.246;2023-03-14T04:39:07;8.40;;;3.50;;
18748;SDS011;9503;53.560;10.246;2023-03-14T04:41:33;12.77;;;4.63;;
18748;SDS011;9503;53.560;10.246;2023-03-14T04:44:00;9.53;;;3.40;;
18748;SDS011;9503;53.560;10.246;2023-03-14T04:46:28;6.60;;;3.53;;
18748;SDS011;9503;53.560;10.246;2023-03-14T04:48:55;12.83;;;3.20;;
18748;SDS011;9503;53.560;10.246;2023-03-14T04:51:22;7.47;;;4.00;;
18748;SDS011;9503;53.560;10.246;2023-03-14T04:53:52;9.23;;;3.77;;
18748;SDS011;9503;53.560;10.246;2023-03-14T04:56:19;9.83;;;3.50;;
18748;SDS011;9503;53.560;10.246;2023-03-14T04:58:45;7.60;;;3.40;;
18748;SDS011;9503;53.560;10.246;2023-03-14T05:01:12;9.40;;;3.20;;
18748;SDS011;9503;53.560;10.246;2023-03-14T05:03:40;10.77;;;3.60;;
18748;SDS011;9503;53.560;10.246;2023-03-14T05:06:06;10.43;;;3.30;;
18748;SDS011;9503;53.560;10.246;2023-03-14T05:08:33;7.63;;;3.50;;
18748;SDS011;9503;53.560;10.246;2023-03-14T05:11:00;13.73;;;4.30;;
18748;SDS011;9503;53.560;10.246;2023-03-14T05:13:28;5.60;;;2.93;;
18748;SDS011;9503;53.560;10.246;2023-03-14T05:16:02;7.77;;;3.23;;
18748;SDS011;9503;53.560;10.246;2023-03-14T05:18:30;7.80;;;3.37;;
18748;SDS011;9503;53.560;10.246;2023-03-14T05:20:58;10.13;;;3.97;;
18748;SDS011;9503;53.560;10.246;2023-03-14T05:23:24;8.03;;;3.80;;
18748;SDS011;9503;53.560;10.246;2023-03-14T05:25:52;5.27;;;3.50;;
18748;SDS011;9503;53.560;10.246;2023-03-14T05:28:25;6.87;;;3.70;;
18748;SDS011;9503;53.560;10.246;2023-03-14T05:30:51;7.73;;;3.17;;
18748;SDS011;9503;53.560;10.246;2023-03-14T05:33:18;8.40;;;3.63;;
18748;SDS011;9503;53.560;10.246;2023-03-14T05:35:45;9.23;;;3.60;;
18748;SDS011;9503;53.560;10.246;2023-03-14T05:38:13;6.23;;;3.30;;
18748;SDS011;9503;53.560;10.246;2023-03-14T05:40:39;7.10;;;3.33;;
18748;SDS011;9503;53.560;10.246;2023-03-14T05:43:06;10.17;;;3.27;;
18748;SDS011;9503;53.560;10.246;2023-03-14T05:45:33;7.63;;;3.40;;
18748;SDS011;9503;53.560;10.246;2023-03-14T05:48:00;5.50;;;3.47;;
18748;SDS011;9503;53.560;10.246;2023-03-14T05:50:26;7.43;;;3.87;;
18748;SDS011;9503;53.560;10.246;2023-03-14T05:52:53;8.30;;;3.70;;
18748;SDS011;9503;53.560;10.246;2023-03-14T05:55:21;6.53;;;3.10;;
18748;SDS011;9503;53.560;10.246;2023-03-14T05:57:47;6.33;;;3.47;;
18748;SDS011;9503;53.560;10.246;2023-03-14T06:00:14;8.77;;;3.17;;
18748;SDS011;9503;53.560;10.246;2023-03-14T06:02:41;6.93;;;3.53;;
18748;SDS011;9503;53.560;10.246;2023-03-14T06:05:08;5.40;;;2.90;;
18748;SDS011;9503;53.560;10.246;2023-03-14T06:07:35;7.83;;;3.13;;
18748;SDS011;9503;53.560;10.246;2023-03-14T06:10:01;7.13;;;3.20;;
18748;SDS011;9503;53.560;10.246;2023-03-14T06:12:30;6.60;;;3.77;;
18748;SDS011;9503;53.560;10.246;2023-03-14T06:14:56;9.00;;;3.77;;
18748;SDS011;9503;53.560;10.246;2023-03-14T06:17:23;7.73;;;3.30;;
18748;SDS011;9503;53.560;10.246;2023-03-14T06:19:50;7.87;;;3.30;;
18748;SDS011;9503;53.560;10.246;2023-03-14T06:22:16;4.13;;;3.10;;
18748;SDS011;9503;53.560;10.246;2023-03-14T06:24:44;7.47;;;3.50;;
18748;SDS011;9503;53.560;10.246;2023-03-14T06:27:10;10.73;;;3.70;;
18748;SDS011;9503;53.560;10.246;2023-03-14T06:29:38;6.63;;;3.00;;
18748;SDS011;9503;53.560;10.246;2023-03-14T06:32:05;7.47;;;3.70;;
18748;SDS011;9503;53.560;10.246;2023-03-14T06:34:32;6.27;;;3.27;;
18748;SDS011;9503;53.560;10.246;2023-03-14T06:36:58;7.40;;;3.33;;
18748;SDS011;9503;53.560;10.246;2023-03-14T06:39:25;5.50;;;3.00;;
18748;SDS011;9503;53.560;10.246;2023-03-14T06:41:51;8.17;;;3.37;;
18748;SDS011;9503;53.560;10.246;2023-03-14T06:44:18;9.83;;;4.00;;
18748;SDS011;9503;53.560;10.246;2023-03-14T06:46:46;8.40;;;3.40;;
18748;SDS011;9503;53.560;10.246;2023-03-14T06:49:13;7.37;;;2.90;;
18748;SDS011;9503;53.560;10.246;2023-03-14T06:51:39;9.60;;;3.17;;
18748;SDS011;9503;53.560;10.246;2023-03-14T06:54:06;6.87;;;2.77;;
18748;SDS011;9503;53.560;10.246;2023-03-14T06:56:33;6.03;;;3.00;;
18748;SDS011;9503;53.560;10.246;2023-03-14T06:58:59;5.40;;;2.53;;
18748;SDS011;9503;53.560;10.246;2023-03-14T07:01:27;8.87;;;3.37;;
18748;SDS011;9503;53.560;10.246;2023-03-14T07:03:56;5.90;;;2.90;;
18748;SDS011;9503;53.560;10.246;2023-03-14T07:06:23;8.30;;;2.50;;
18748;SDS011;9503;53.560;10.246;2023-03-14T07:08:50;7.43;;;2.77;;
18748;SDS011;9503;53.560;10.246;2023-03-14T07:11:16;6.37;;;2.23;;
18748;SDS011;9503;53.560;10.246;2023-03-14T07:13:43;5.00;;;2.53;;
18748;SDS011;9503;53.560;10.246;2023-03-14T07:16:10;4.47;;;2.53;;
18748;SDS011;9503;53.560;10.246;2023-03-14T07:18:36;9.67;;;3.23;;
18748;SDS011;9503;53.560;10.246;2023-03-14T07:21:05;6.07;;;2.60;;
18748;SDS011;9503;53.560;10.246;2023-03-14T07:23:31;11.87;;;3.00;;
18748;SDS011;9503;53.560;10.246;2023-03-14T07:25:58;5.20;;;2.73;;
18748;SDS011;9503;53.560;10.246;2023-03-14T07:28:25;8.73;;;3.40;;
18748;SDS011;9503;53.560;10.246;2023-03-14T07:30:52;5.87;;;2.73;;
18748;SDS011;9503;53.560;10.246;2023-03-14T07:33:19;5.30;;;2.43;;
18748;SDS011;9503;53.560;10.246;2023-03-14T07:35:46;5.97;;;2.63;;
18748;SDS011;9503;53.560;10.246;2023-03-14T07:38:14;7.43;;;2.67;;
18748;SDS011;9503;53.560;10.246;2023-03-14T07:40:41;6.80;;;2.43;;
18748;SDS011;9503;53.560;10.246;2023-03-14T07:43:07;7.73;;;2.67;;
18748;SDS011;9503;53.560;10.246;2023-03-14T07:45:34;7.70;;;2.43;;
18748;SDS011;9503;53.560;10.246;2023-03-14T07:48:01;5.03;;;2.23;;
18748;SDS011;9503;53.560;10.246;2023-03-14T07:50:27;3.27;;;2.00;;
18748;SDS011;9503;53.560;10.246;2023-03-14T07:52:54;5.60;;;2.50;;
18748;SDS011;9503;53.560;10.246;2023-03-14T07:55:22;4.70;;;1.97;;
18748;SDS011;9503;53.560;10.246;2023-03-14T07:57:49;5.57;;;2.10;;
18748;SDS011;9503;53.560;10.246;2023-03-14T08:00:15;7.53;;;1.90;;
18748;SDS011;9503;53.560;10.246;2023-03-14T08:02:43;6.83;;;2.20;;
18748;SDS011;9503;53.560;10.246;2023-03-14T08:05:09;5.47;;;1.90;;
18748;SDS011;9503;53.560;10.246;2023-03-14T08:07:36;2.97;;;1.83;;
18748;SDS011;9503;53.560;10.246;2023-03-14T08:10:03;5.33;;;1.77;;
18748;SDS011;9503;53.560;10.246;2023-03-14T08:12:32;3.47;;;2.03;;
18748;SDS011;9503;53.560;10.246;2023-03-14T08:14:58;4.50;;;2.13;;
18748;SDS011;9503;53.560;10.246;2023-03-14T08:17:25;5.13;;;2.10;;
18748;SDS011;9503;53.560;10.246;2023-03-14T08:19:52;6.47;;;2.37;;
18748;SDS011;9503;53.560;10.246;2023-03-14T08:22:19;4.77;;;2.80;;
18748;SDS011;9503;53.560;10.246;2023-03-14T08:24:45;5.77;;;2.20;;
18748;SDS011;9503;53.560;10.246;2023-03-14T08:27:12;4.33;;;2.53;;
18748;SDS011;9503;53.560;10.246;2023-03-14T08:29:40;8.37;;;2.33;;
18748;SDS011;9503;53.560;10.246;2023-03-14T08:32:07;8.60;;;3.40;;
18748;SDS011;9503;53.560;10.246;2023-03-14T08:34:34;4.70;;;2.57;;
18748;SDS011;9503;53.560;10.246;2023-03-14T08:37:00;3.90;;;2.33;;
18748;SDS011;9503;53.560;10.246;2023-03-14T08:39:27;8.53;;;2.90;;
18748;SDS011;9503;53.560;10.246;2023-03-14T08:41:54;6.23;;;2.63;;
18748;SDS011;9503;53.560;10.246;2023-03-14T08:44:20;6.60;;;2.90;;
18748;SDS011;9503;53.560;10.246;2023-03-14T08:46:48;5.27;;;2.83;;
18748;SDS011;9503;53.560;10.246;2023-03-14T08:49:15;4.33;;;2.63;;
18748;SDS011;9503;53.560;10.246;2023-03-14T08:51:41;8.40;;;3.07;;
18748;SDS011;9503;53.560;10.246;2023-03-14T08:54:09;3.93;;;3.07;;
18748;SDS011;9503;53.560;10.246;2023-03-14T08:56:36;7.07;;;3.50;;
18748;SDS011;9503;53.560;10.246;2023-03-14T08:59:03;6.47;;;3.80;;
18748;SDS011;9503;53.560;10.246;2023-03-14T09:01:30;10.90;;;4.17;;
18748;SDS011;9503;53.560;10.246;2023-03-14T09:03:58;12.60;;;4.37;;
18748;SDS011;9503;53.560;10.246;2023-03-14T09:06:25;6.77;;;4.03;;
18748;SDS011;9503;53.560;10.246;2023-03-14T09:08:51;10.73;;;4.33;;
18748;SDS011;9503;53.560;10.246;2023-03-14T09:11:18;11.00;;;4.73;;
18748;SDS011;9503;53.560;10.246;2023-03-14T09:13:44;6.77;;;4.50;;
18748;SDS011;9503;53.560;10.246;2023-03-14T09:16:11;10.57;;;4.67;;
18748;SDS011;9503;53.560;10.246;2023-03-14T09:18:38;10.33;;;4.17;;
18748;SDS011;9503;53.560;10.246;2023-03-14T09:21:06;13.63;;;5.37;;
18748;SDS011;9503;53.560;10.246;2023-03-14T09:23:33;11.60;;;5.73;;
18748;SDS011;9503;53.560;10.246;2023-03-14T09:26:00;9.73;;;4.70;;
18748;SDS011;9503;53.560;10.246;2023-03-14T09:28:27;10.20;;;4.53;;
18748;SDS011;9503;53.560;10.246;2023-03-14T09:30:53;8.77;;;4.47;;
18748;SDS011;9503;53.560;10.246;2023-03-14T09:33:20;7.37;;;4.27;;
18748;SDS011;9503;53.560;10.246;2023-03-14T09:35:47;6.50;;;4.63;;
18748;SDS011;9503;53.560;10.246;2023-03-14T09:38:15;9.67;;;4.60;;
18748;SDS011;9503;53.560;10.246;2023-03-14T09:40:42;7.33;;;4.17;;
18748;SDS011;9503;53.560;10.246;2023-03-14T09:43:09;8.23;;;4.40;;
18748;SDS011;9503;53.560;10.246;2023-03-14T09:45:40;8.40;;;4.20;;
18748;SDS011;9503;53.560;10.246;2023-03-14T09:48:11;7.40;;;3.50;;
18748;SDS011;9503;53.560;10.246;2023-03-14T09:50:42;7.60;;;4.00;;
18748;SDS011;9503;53.560;10.246;2023-03-14T09:53:11;8.03;;;3.90;;
18748;SDS011;9503;53.560;10.246;2023-03-14T09:55:43;8.07;;;4.07;;
18748;SDS011;9503;53.560;10.246;2023-03-14T09:58:14;6.67;;;4.07;;
18748;SDS011;9503;53.560;10.246;2023-03-14T10:00:44;10.50;;;4.63;;
18748;SDS011;9503;53.560;10.246;2023-03-14T10:03:19;10.40;;;4.90;;
18748;SDS011;9503;53.560;10.246;2023-03-14T10:05:50;11.70;;;4.67;;
18748;SDS011;9503;53.560;10.246;2023-03-14T10:08:18;11.87;;;5.30;;
18748;SDS011;9503;53.560;10.246;2023-03-14T10:10:45;8.00;;;4.13;;
18748;SDS011;9503;53.560;10.246;2023-03-14T10:13:14;7.07;;;3.90;;
18748;SDS011;9503;53.560;10.246;2023-03-14T10:15:43;10.33;;;5.03;;
18748;SDS011;9503;53.560;10.246;2023-03-14T10:18:14;4.90;;;2.60;;
18748;SDS011;9503;53.560;10.246;2023-03-14T10:20:41;3.73;;;1.70;;
18748;SDS011;9503;53.560;10.246;2023-03-14T10:23:20;3.97;;;1.20;;
18748;SDS011;9503;53.560;10.246;2023-03-14T10:25:58;3.70;;;1.27;;
18748;SDS011;9503;53.560;10.246;2023-03-14T10:28:29;5.00;;;1.63;;
18748;SDS011;9503;53.560;10.246;2023-03-14T10:30:58;3.63;;;1.17;;
18748;SDS011;9503;53.560;10.246;2023-03-14T10:33:26;1.47;;;1.20;;
18748;SDS011;9503;53.560;10.246;2023-03-14T10:35:55;3.27;;;1.23;;
18748;SDS011;9503;53.560;10.246;2023-03-14T10:38:25;2.83;;;1.20;;
18748;SDS011;9503;53.560;10.246;2023-03-14T10:40:53;1.53;;;1.10;;
18748;SDS011;9503;53.560;10.246;2023-03-14T10:43:22;2.93;;;1.10;;
18748;SDS011;9503;53.560;10.246;2023-03-14T10:45:52;4.07;;;1.43;;
18748;SDS011;9503;53.560;10.246;2023-03-14T10:48:24;5.00;;;1.70;;
18748;SDS011;9503;53.560;10.246;2023-03-14T10:50:56;2.70;;;0.90;;
18748;SDS011;9503;53.560;10.246;2023-03-14T10:53:25;0.90;;;0.90;;
18748;SDS011;9503;53.560;10.246;2023-03-14T10:55:52;1.90;;;0.80;;
18748;SDS011;9503;53.560;10.246;2023-03-14T10:58:22;1.23;;;0.80;;
18748;SDS011;9503;53.560;10.246;2023-03-14T11:00:52;3.03;;;0.93;;
18748;SDS011;9503;53.560;10.246;2023-03-14T11:03:27;2.87;;;0.90;;
18748;SDS011;9503;53.560;10.246;2023-03-14T11:05:59;1.47;;;0.80;;
18748;SDS011;9503;53.560;10.246;2023-03-14T11:08:34;2.33;;;0.80;;
18748;SDS011;9503;53.560;10.246;2023-03-14T11:11:09;0.90;;;0.90;;
18748;SDS011;9503;53.560;10.246;2023-03-14T11:13:43;1.33;;;1.10;;
18748;SDS011;9503;53.560;10.246;2023-03-14T11:16:22;1.43;;;1.10;;
18748;SDS011;9503;53.560;10.246;2023-03-14T11:19:02;1.10;;;1.00;;
18748;SDS011;9503;53.560;10.246;2023-03-14T11:21:37;1.57;;;1.00;;
18748;SDS011;9503;53.560;10.246;2023-03-14T11:24:17;1.03;;;0.80;;
18748;SDS011;9503;53.560;10.246;2023-03-14T11:26:55;1.50;;;1.00;;
18748;SDS011;9503;53.560;10.246;2023-03-14T11:29:28;3.13;;;0.80;;
18748;SDS011;9503;53.560;10.246;2023-03-14T11:32:09;1.63;;;0.90;;
18748;SDS011;9503;53.560;10.246;2023-03-14T11:34:40;1.93;;;0.93;;
18748;SDS011;9503;53.560;10.246;2023-03-14T11:37:17;4.97;;;0.90;;
18748;SDS011;9503;53.560;10.246;2023-03-14T11:39:53;4.00;;;1.13;;
18748;SDS011;9503;53.560;10.246;2023-03-14T11:42:25;1.90;;;0.87;;
18748;SDS011;9503;53.560;10.246;2023-03-14T11:44:52;1.20;;;0.90;;
18748;SDS011;9503;53.560;10.246;2023-03-14T11:47:22;1.57;;;0.80;;
18748;SDS011;9503;53.560;10.246;2023-03-14T11:49:53;1.37;;;0.90;;
18748;SDS011;9503;53.560;10.246;2023-03-14T11:52:25;2.00;;;0.80;;
18748;SDS011;9503;53.560;10.246;2023-03-14T11:54:58;1.00;;;0.70;;
18748;SDS011;9503;53.560;10.246;2023-03-14T11:57:28;3.57;;;0.90;;
18748;SDS011;9503;53.560;10.246;2023-03-14T11:59:55;1.23;;;0.60;;
18748;SDS011;9503;53.560;10.246;2023-03-14T12:02:32;1.33;;;0.80;;
18748;SDS011;9503;53.560;10.246;2023-03-14T12:11:21;2.57;;;1.50;;
18748;SDS011;9503;53.560;10.246;2023-03-14T12:13:53;4.57;;;1.10;;
18748;SDS011;9503;53.560;10.246;2023-03-14T12:22:21;5.77;;;1.87;;
18748;SDS011;9503;53.560;10.246;2023-03-14T12:24:54;4.40;;;1.37;;
18748;SDS011;9503;53.560;10.246;2023-03-14T12:27:43;5.87;;;1.20;;
18748;SDS011;9503;53.560;10.246;2023-03-14T12:30:28;5.07;;;1.97;;
18748;SDS011;9503;53.560;10.246;2023-03-14T12:33:19;7.47;;;1.57;;
18748;SDS011;9503;53.560;10.246;2023-03-14T12:39:17;7.07;;;1.70;;
18748;SDS011;9503;53.560;10.246;2023-03-14T12:41:51;3.80;;;1.47;;
18748;SDS011;9503;53.560;10.246;2023-03-14T12:44:39;8.63;;;2.10;;
18748;SDS011;9503;53.560;10.246;2023-03-14T12:50:21;4.10;;;1.57;;
18748;SDS011;9503;53.560;10.246;2023-03-14T12:52:57;8.47;;;1.93;;
18748;SDS011;9503;53.560;10.246;2023-03-14T12:55:48;6.50;;;1.93;;
18748;SDS011;9503;53.560;10.246;2023-03-14T12:58:21;9.47;;;3.10;;
18748;SDS011;9503;53.560;10.246;2023-03-14T13:00:58;4.20;;;1.63;;
18748;SDS011;9503;53.560;10.246;2023-03-14T13:03:27;6.20;;;1.60;;
18748;SDS011;9503;53.560;10.246;2023-03-14T13:06:05;13.07;;;2.83;;
18748;SDS011;9503;53.560;10.246;2023-03-14T13:08:32;6.37;;;1.63;;
18748;SDS011;9503;53.560;10.246;2023-03-14T13:11:02;5.03;;;2.00;;
18748;SDS011;9503;53.560;10.246;2023-03-14T13:13:33;10.83;;;2.33;;
18748;SDS011;9503;53.560;10.246;2023-03-14T13:16:03;9.07;;;2.67;;
18748;SDS011;9503;53.560;10.246;2023-03-14T13:18:33;6.03;;;1.97;;
18748;SDS011;9503;53.560;10.246;2023-03-14T13:21:02;8.63;;;2.17;;
18748;SDS011;9503;53.560;10.246;2023-03-14T13:23:33;10.97;;;2.97;;
18748;SDS011;9503;53.560;10.246;2023-03-14T13:26:02;4.50;;;1.53;;
18748;SDS011;9503;53.560;10.246;2023-03-14T13:28:32;17.20;;;4.13;;
18748;SDS011;9503;53.560;10.246;2023-03-14T13:31:02;11.07;;;2.97;;
18748;SDS011;9503;53.560;10.246;2023-03-14T13:33:31;9.80;;;2.20;;
18748;SDS011;9503;53.560;10.246;2023-03-14T13:36:00;9.20;;;2.43;;
18748;SDS011;9503;53.560;10.246;2023-03-14T13:38:28;16.27;;;3.47;;
18748;SDS011;9503;53.560;10.246;2023-03-14T13:40:56;14.63;;;3.13;;
18748;SDS011;9503;53.560;10.246;2023-03-14T13:43:26;14.30;;;2.70;;
18748;SDS011;9503;53.560;10.246;2023-03-14T13:45:56;12.13;;;2.60;;
18748;SDS011;9503;53.560;10.246;2023-03-14T13:48:30;11.80;;;2.43;;
18748;SDS011;9503;53.560;10.246;2023-03-14T13:50:59;11.70;;;2.40;;
18748;SDS011;9503;53.560;10.246;2023-03-14T13:53:29;16.47;;;2.80;;
18748;SDS011;9503;53.560;10.246;2023-03-14T13:55:56;7.10;;;2.13;;
18748;SDS011;9503;53.560;10.246;2023-03-14T13:58:24;12.97;;;2.37;;
18748;SDS011;9503;53.560;10.246;2023-03-14T14:00:54;6.57;;;1.90;;
18748;SDS011;9503;53.560;10.246;2023-03-14T14:03:38;7.87;;;2.07;;
18748;SDS011;9503;53.560;10.246;2023-03-14T14:06:08;12.47;;;2.40;;
18748;SDS011;9503;53.560;10.246;2023-03-14T14:08:43;15.23;;;2.80;;
18748;SDS011;9503;53.560;10.246;2023-03-14T14:11:12;12.10;;;3.27;;
18748;SDS011;9503;53.560;10.246;2023-03-14T14:13:54;14.13;;;2.23;;
18748;SDS011;9503;53.560;10.246;2023-03-14T14:16:25;7.20;;;1.77;;
18748;SDS011;9503;53.560;10.246;2023-03-14T14:18:55;10.10;;;2.63;;
18748;SDS011;9503;53.560;10.246;2023-03-14T14:21:23;7.07;;;1.93;;
18748;SDS011;9503;53.560;10.246;2023-03-14T14:23:50;9.10;;;2.30;;
18748;SDS011;9503;53.560;10.246;2023-03-14T14:26:18;9.73;;;2.00;;
18748;SDS011;9503;53.560;10.246;2023-03-14T14:28:45;8.27;;;2.10;;
18748;SDS011;9503;53.560;10.246;2023-03-14T14:31:18;8.53;;;2.37;;
18748;SDS011;9503;53.560;10.246;2023-03-14T14:33:54;7.07;;;1.80;;
18748;SDS011;9503;53.560;10.246;2023-03-14T14:36:22;9.20;;;2.27;;
18748;SDS011;9503;53.560;10.246;2023-03-14T14:38:54;11.30;;;2.33;;
18748;SDS011;9503;53.560;10.246;2023-03-14T14:41:31;10.57;;;2.37;;
18748;SDS011;9503;53.560;10.246;2023-03-14T14:44:00;8.13;;;2.13;;
18748;SDS011;9503;53.560;10.246;2023-03-14T14:46:30;7.10;;;1.87;;
18748;SDS011;9503;53.560;10.246;2023-03-14T14:49:02;12.67;;;2.57;;
18748;SDS011;9503;53.560;10.246;2023-03-14T14:51:31;10.27;;;2.10;;
18748;SDS011;9503;53.560;10.246;2023-03-14T14:54:02;9.57;;;2.40;;
18748;SDS011;9503;53.560;10.246;2023-03-14T14:56:36;12.23;;;2.27;;
18748;SDS011;9503;53.560;10.246;2023-03-14T14:59:04;8.43;;;2.23;;
18748;SDS011;9503;53.560;10.246;2023-03-14T15:01:33;8.30;;;2.47;;
18748;SDS011;9503;53.560;10.246;2023-03-14T15:04:03;4.23;;;1.80;;
18748;SDS011;9503;53.560;10.246;2023-03-14T15:06:35;9.00;;;1.80;;
18748;SDS011;9503;53.560;10.246;2023-03-14T15:09:02;4.90;;;1.50;;
18748;SDS011;9503;53.560;10.246;2023-03-14T15:11:29;3.80;;;1.57;;
18748;SDS011;9503;53.560;10.246;2023-03-14T15:13:55;3.20;;;1.47;;